sensor_id;sensor_type;location;lat;lon;timestamp;temperature;humidity
10905;DHT22;5505;51.450;9.254;2023-03-04T00:00:33;2.00;99.90
10905;DHT22;5505;51.450;9.254;2023-03-04T00:03:19;1.90;99.90
10905;DHT22;5505;51.450;9.254;2023-03-04T00:06:06;2.00;99.90
10905;DHT22;5505;51.450;9.254;2023-03-04T00:08:53;2.00;99.90
10905;DHT22;5505;51.450;9.254;2023-03-04T00:11:40;2.40;99.90
10905;DHT22;5505;51.450;9.254;2023-03-04T00:14:27;1.90;99.90
10905;DHT22;5505;51.450;9.254;2023-03-04T00:17:18;1.90;99.90
10905;DHT22;5505;51.450;9.254;2023-03-04T00:20:07;1.90;99.90
10905;DHT22;5505;51.450;9.254;2023-03-04T00:22:54;1.90;99.90
10905;DHT22;5505;51.450;9.254;2023-03-04T00:25:41;2.00;99.90
10905;DHT22;5505;51.450;9.254;2023-03-04T00:28:28;2.10;99.90
10905;DHT22;5505;51.450;9.254;2023-03-04T00:31:15;2.00;99.90
10905;DHT22;5505;51.450;9.254;2023-03-04T00:34:03;2.30;99.90
10905;DHT22;5505;51.450;9.254;2023-03-04T00:36:49;3.10;99.90
10905;DHT22;5505;51.450;9.254;2023-03-04T00:39:36;2.10;99.90
10905;DHT22;5505;51.450;9.254;2023-03-04T00:42:23;2.10;99.90
10905;DHT22;5505;51.450;9.254;2023-03-04T00:45:10;2.20;99.90
10905;DHT22;5505;51.450;9.254;2023-03-04T00:47:57;2.30;99.90
10905;DHT22;5505;51.450;9.254;2023-03-04T00:50:45;2.20;99.90
10905;DHT22;5505;51.450;9.254;2023-03-04T00:53:31;2.30;99.90
10905;DHT22;5505;51.450;9.254;2023-03-04T00:56:18;2.20;99.90
10905;DHT22;5505;51.450;9.254;2023-03-04T00:59:05;2.30;99.90
10905;DHT22;5505;51.450;9.254;2023-03-04T01:01:52;2.30;99.90
10905;DHT22;5505;51.450;9.254;2023-03-04T01:04:38;2.30;99.90
10905;DHT22;5505;51.450;9.254;2023-03-04T01:07:27;2.30;99.90
10905;DHT22;5505;51.450;9.254;2023-03-04T01:10:14;2.40;99.90
10905;DHT22;5505;51.450;9.254;2023-03-04T01:13:01;2.40;99.90
10905;DHT22;5505;51.450;9.254;2023-03-04T01:15:48;2.40;99.90
10905;DHT22;5505;51.450;9.254;2023-03-04T01:18:35;2.40;99.90
10905;DHT22;5505;51.450;9.254;2023-03-04T01:21:22;2.40;99.90
10905;DHT22;5505;51.450;9.254;2023-03-04T01:24:10;2.40;99.90
10905;DHT22;5505;51.450;9.254;2023-03-04T01:26:57;2.30;99.90
10905;DHT22;5505;51.450;9.254;2023-03-04T01:29:44;2.40;99.90
10905;DHT22;5505;51.450;9.254;2023-03-04T01:32:30;2.40;99.90
10905;DHT22;5505;51.450;9.254;2023-03-04T01:35:17;2.40;99.90
10905;DHT22;5505;51.450;9.254;2023-03-04T01:38:04;2.40;99.90
10905;DHT22;5505;51.450;9.254;2023-03-04T01:40:52;2.40;99.90
10905;DHT22;5505;51.450;9.254;2023-03-04T01:43:39;2.50;99.90
10905;DHT22;5505;51.450;9.254;2023-03-04T01:46:26;2.40;99.90
10905;DHT22;5505;51.450;9.254;2023-03-04T01:49:14;2.70;99.90
10905;DHT22;5505;51.450;9.254;2023-03-04T01:52:01;2.40;99.90
10905;DHT22;5505;51.450;9.254;2023-03-04T01:54:48;2.60;99.90
10905;DHT22;5505;51.450;9.254;2023-03-04T01:57:38;2.40;99.90
10905;DHT22;5505;51.450;9.254;2023-03-04T02:00:27;2.40;99.90
10905;DHT22;5505;51.450;9.254;2023-03-04T02:03:17;2.40;99.90
10905;DHT22;5505;51.450;9.254;2023-03-04T02:06:05;2.50;99.90
10905;DHT22;5505;51.450;9.254;2023-03-04T02:08:52;2.50;99.90
10905;DHT22;5505;51.450;9.254;2023-03-04T02:11:39;2.50;99.90
10905;DHT22;5505;51.450;9.254;2023-03-04T02:14:27;2.50;99.90
10905;DHT22;5505;51.450;9.254;2023-03-04T02:17:14;2.50;99.90
10905;DHT22;5505;51.450;9.254;2023-03-04T02:20:08;2.50;99.90
10905;DHT22;5505;51.450;9.254;2023-03-04T02:23:02;2.50;99.90
10905;DHT22;5505;51.450;9.254;2023-03-04T02:28:48;2.50;99.90
10905;DHT22;5505;51.450;9.254;2023-03-04T02:31:37;2.50;99.90
10905;DHT22;5505;51.450;9.254;2023-03-04T02:34:27;2.50;99.90
10905;DHT22;5505;51.450;9.254;2023-03-04T02:37:16;2.60;99.90
10905;DHT22;5505;51.450;9.254;2023-03-04T02:40:04;2.60;99.90
10905;DHT22;5505;51.450;9.254;2023-03-04T02:42:51;2.50;99.90
10905;DHT22;5505;51.450;9.254;2023-03-04T02:45:43;2.50;99.90
10905;DHT22;5505;51.450;9.254;2023-03-04T02:48:30;2.60;99.90
10905;DHT22;5505;51.450;9.254;2023-03-04T02:51:17;2.60;99.90
10905;DHT22;5505;51.450;9.254;2023-03-04T02:54:04;2.60;99.90
10905;DHT22;5505;51.450;9.254;2023-03-04T02:56:52;1.80;99.90
10905;DHT22;5505;51.450;9.254;2023-03-04T02:59:40;2.60;99.90
10905;DHT22;5505;51.450;9.254;2023-03-04T03:02:29;2.60;99.90
10905;DHT22;5505;51.450;9.254;2023-03-04T03:05:16;2.60;99.90
10905;DHT22;5505;51.450;9.254;2023-03-04T03:08:04;2.60;99.90
10905;DHT22;5505;51.450;9.254;2023-03-04T03:10:50;2.60;99.90
10905;DHT22;5505;51.450;9.254;2023-03-04T03:13:37;2.60;99.90
10905;DHT22;5505;51.450;9.254;2023-03-04T03:16:24;2.60;99.90
10905;DHT22;5505;51.450;9.254;2023-03-04T03:19:12;3.00;99.90
10905;DHT22;5505;51.450;9.254;2023-03-04T03:21:59;2.70;99.90
10905;DHT22;5505;51.450;9.254;2023-03-04T03:24:46;2.70;99.90
10905;DHT22;5505;51.450;9.254;2023-03-04T03:27:33;2.70;99.90
10905;DHT22;5505;51.450;9.254;2023-03-04T03:30:20;2.70;99.90
10905;DHT22;5505;51.450;9.254;2023-03-04T03:33:07;2.70;99.90
10905;DHT22;5505;51.450;9.254;2023-03-04T03:35:55;2.70;99.90
10905;DHT22;5505;51.450;9.254;2023-03-04T03:38:42;2.70;99.90
10905;DHT22;5505;51.450;9.254;2023-03-04T03:41:28;2.70;99.90
10905;DHT22;5505;51.450;9.254;2023-03-04T03:44:15;2.70;99.90
10905;DHT22;5505;51.450;9.254;2023-03-04T03:47:02;2.70;99.90
10905;DHT22;5505;51.450;9.254;2023-03-04T03:49:49;2.70;99.90
10905;DHT22;5505;51.450;9.254;2023-03-04T03:52:37;4.00;99.90
10905;DHT22;5505;51.450;9.254;2023-03-04T03:55:24;2.80;99.90
10905;DHT22;5505;51.450;9.254;2023-03-04T03:58:11;5.00;99.90
10905;DHT22;5505;51.450;9.254;2023-03-04T04:00:58;2.80;99.90
10905;DHT22;5505;51.450;9.254;2023-03-04T04:03:45;2.80;99.90
10905;DHT22;5505;51.450;9.254;2023-03-04T04:06:32;2.80;99.90
10905;DHT22;5505;51.450;9.254;2023-03-04T04:09:20;2.80;99.90
10905;DHT22;5505;51.450;9.254;2023-03-04T04:12:07;2.00;99.90
10905;DHT22;5505;51.450;9.254;2023-03-04T04:14:54;2.80;99.90
10905;DHT22;5505;51.450;9.254;2023-03-04T04:17:40;3.20;99.90
10905;DHT22;5505;51.450;9.254;2023-03-04T04:20:27;2.80;99.90
10905;DHT22;5505;51.450;9.254;2023-03-04T04:23:14;2.80;99.90
10905;DHT22;5505;51.450;9.254;2023-03-04T04:26:02;2.80;99.90
10905;DHT22;5505;51.450;9.254;2023-03-04T04:28:49;2.80;99.90
10905;DHT22;5505;51.450;9.254;2023-03-04T04:31:36;2.80;99.90
10905;DHT22;5505;51.450;9.254;2023-03-04T04:34:22;3.20;99.90
10905;DHT22;5505;51.450;9.254;2023-03-04T04:37:09;2.80;99.90
10905;DHT22;5505;51.450;9.254;2023-03-04T04:39:56;2.80;99.90
10905;DHT22;5505;51.450;9.254;2023-03-04T04:42:44;2.80;99.90
10905;DHT22;5505;51.450;9.254;2023-03-04T04:45:31;2.80;99.90
10905;DHT22;5505;51.450;9.254;2023-03-04T04:48:18;2.70;99.90
10905;DHT22;5505;51.450;9.254;2023-03-04T04:51:05;2.80;99.90
10905;DHT22;5505;51.450;9.254;2023-03-04T04:53:51;2.80;99.90
10905;DHT22;5505;51.450;9.254;2023-03-04T04:56:38;2.80;99.90
10905;DHT22;5505;51.450;9.254;2023-03-04T04:59:26;2.80;99.90
10905;DHT22;5505;51.450;9.254;2023-03-04T05:02:13;3.10;99.90
10905;DHT22;5505;51.450;9.254;2023-03-04T05:05:00;2.70;99.90
10905;DHT22;5505;51.450;9.254;2023-03-04T05:07:47;2.80;99.90
10905;DHT22;5505;51.450;9.254;2023-03-04T05:10:34;2.80;99.90
10905;DHT22;5505;51.450;9.254;2023-03-04T05:13:21;2.80;99.90
10905;DHT22;5505;51.450;9.254;2023-03-04T05:16:09;2.80;99.90
10905;DHT22;5505;51.450;9.254;2023-03-04T05:18:56;2.80;99.90
10905;DHT22;5505;51.450;9.254;2023-03-04T05:21:43;2.80;99.90
10905;DHT22;5505;51.450;9.254;2023-03-04T05:24:29;2.80;99.90
10905;DHT22;5505;51.450;9.254;2023-03-04T05:27:16;2.80;99.90
10905;DHT22;5505;51.450;9.254;2023-03-04T05:30:04;2.80;99.90
10905;DHT22;5505;51.450;9.254;2023-03-04T05:32:52;2.80;99.90
10905;DHT22;5505;51.450;9.254;2023-03-04T05:35:40;3.90;99.90
10905;DHT22;5505;51.450;9.254;2023-03-04T05:38:27;2.80;99.90
10905;DHT22;5505;51.450;9.254;2023-03-04T05:41:14;2.80;99.90
10905;DHT22;5505;51.450;9.254;2023-03-04T05:44:03;2.80;99.90
10905;DHT22;5505;51.450;9.254;2023-03-04T05:46:50;2.80;99.90
10905;DHT22;5505;51.450;9.254;2023-03-04T05:49:38;2.80;99.90
10905;DHT22;5505;51.450;9.254;2023-03-04T05:52:25;2.80;99.90
10905;DHT22;5505;51.450;9.254;2023-03-04T05:55:12;2.70;99.90
10905;DHT22;5505;51.450;9.254;2023-03-04T05:57:59;4.40;99.90
10905;DHT22;5505;51.450;9.254;2023-03-04T06:00:46;2.80;99.90
10905;DHT22;5505;51.450;9.254;2023-03-04T06:03:33;2.90;99.90
10905;DHT22;5505;51.450;9.254;2023-03-04T06:06:21;2.80;99.90
10905;DHT22;5505;51.450;9.254;2023-03-04T06:09:08;2.90;99.90
10905;DHT22;5505;51.450;9.254;2023-03-04T06:11:54;2.90;99.90
10905;DHT22;5505;51.450;9.254;2023-03-04T06:14:41;2.90;99.90
10905;DHT22;5505;51.450;9.254;2023-03-04T06:17:28;2.90;99.90
10905;DHT22;5505;51.450;9.254;2023-03-04T06:20:15;2.90;99.90
10905;DHT22;5505;51.450;9.254;2023-03-04T06:23:04;2.90;99.90
10905;DHT22;5505;51.450;9.254;2023-03-04T06:25:51;3.00;99.90
10905;DHT22;5505;51.450;9.254;2023-03-04T06:28:38;2.90;99.90
10905;DHT22;5505;51.450;9.254;2023-03-04T06:31:25;3.00;99.90
10905;DHT22;5505;51.450;9.254;2023-03-04T06:34:12;3.00;99.90
10905;DHT22;5505;51.450;9.254;2023-03-04T06:36:59;3.00;99.90
10905;DHT22;5505;51.450;9.254;2023-03-04T06:39:47;3.00;99.90
10905;DHT22;5505;51.450;9.254;2023-03-04T06:42:34;3.00;99.90
10905;DHT22;5505;51.450;9.254;2023-03-04T06:45:20;3.10;99.90
10905;DHT22;5505;51.450;9.254;2023-03-04T06:48:07;3.10;99.90
10905;DHT22;5505;51.450;9.254;2023-03-04T06:50:55;3.10;99.90
10905;DHT22;5505;51.450;9.254;2023-03-04T06:53:42;3.10;99.90
10905;DHT22;5505;51.450;9.254;2023-03-04T06:56:30;3.10;99.90
10905;DHT22;5505;51.450;9.254;2023-03-04T06:59:17;3.10;99.90
10905;DHT22;5505;51.450;9.254;2023-03-04T07:02:04;3.10;99.90
10905;DHT22;5505;51.450;9.254;2023-03-04T07:04:51;3.10;99.90
10905;DHT22;5505;51.450;9.254;2023-03-04T07:07:38;3.10;99.90
10905;DHT22;5505;51.450;9.254;2023-03-04T07:10:24;3.10;99.90
10905;DHT22;5505;51.450;9.254;2023-03-04T07:13:12;3.10;99.90
10905;DHT22;5505;51.450;9.254;2023-03-04T07:15:59;3.10;99.90
10905;DHT22;5505;51.450;9.254;2023-03-04T07:18:46;3.20;99.90
10905;DHT22;5505;51.450;9.254;2023-03-04T07:21:33;3.20;99.90
10905;DHT22;5505;51.450;9.254;2023-03-04T07:24:20;3.20;99.90
10905;DHT22;5505;51.450;9.254;2023-03-04T07:27:06;3.20;99.90
10905;DHT22;5505;51.450;9.254;2023-03-04T07:29:55;3.20;99.90
10905;DHT22;5505;51.450;9.254;2023-03-04T07:32:41;3.20;99.90
10905;DHT22;5505;51.450;9.254;2023-03-04T07:35:28;3.20;99.90
10905;DHT22;5505;51.450;9.254;2023-03-04T07:38:15;0.90;99.90
10905;DHT22;5505;51.450;9.254;2023-03-04T07:41:02;3.30;99.90
10905;DHT22;5505;51.450;9.254;2023-03-04T07:43:49;3.30;99.90
10905;DHT22;5505;51.450;9.254;2023-03-04T07:46:37;3.40;99.90
10905;DHT22;5505;51.450;9.254;2023-03-04T07:49:24;4.80;99.90
10905;DHT22;5505;51.450;9.254;2023-03-04T07:52:11;3.60;99.90
10905;DHT22;5505;51.450;9.254;2023-03-04T07:54:59;3.60;99.90
10905;DHT22;5505;51.450;9.254;2023-03-04T07:57:46;3.60;99.90
10905;DHT22;5505;51.450;9.254;2023-03-04T08:00:33;3.60;99.90
10905;DHT22;5505;51.450;9.254;2023-03-04T08:03:21;3.60;99.90
10905;DHT22;5505;51.450;9.254;2023-03-04T08:06:09;3.70;99.90
10905;DHT22;5505;51.450;9.254;2023-03-04T08:08:58;3.70;99.90
10905;DHT22;5505;51.450;9.254;2023-03-04T08:11:45;3.70;99.90
10905;DHT22;5505;51.450;9.254;2023-03-04T08:14:32;3.80;99.90
10905;DHT22;5505;51.450;9.254;2023-03-04T08:17:19;3.90;99.90
10905;DHT22;5505;51.450;9.254;2023-03-04T08:20:10;3.90;99.90
10905;DHT22;5505;51.450;9.254;2023-03-04T08:22:57;3.90;99.90
10905;DHT22;5505;51.450;9.254;2023-03-04T08:25:44;4.00;99.90
10905;DHT22;5505;51.450;9.254;2023-03-04T08:28:31;5.00;99.90
10905;DHT22;5505;51.450;9.254;2023-03-04T08:31:17;4.00;99.90
10905;DHT22;5505;51.450;9.254;2023-03-04T08:34:05;4.00;99.90
10905;DHT22;5505;51.450;9.254;2023-03-04T08:36:53;4.00;99.90
10905;DHT22;5505;51.450;9.254;2023-03-04T08:39:40;4.00;99.90
10905;DHT22;5505;51.450;9.254;2023-03-04T08:42:27;4.10;99.90
10905;DHT22;5505;51.450;9.254;2023-03-04T08:45:14;4.10;99.90
10905;DHT22;5505;51.450;9.254;2023-03-04T08:48:01;4.10;99.90
10905;DHT22;5505;51.450;9.254;2023-03-04T08:50:49;4.20;99.90
10905;DHT22;5505;51.450;9.254;2023-03-04T08:53:38;4.20;99.90
10905;DHT22;5505;51.450;9.254;2023-03-04T08:56:25;4.20;99.90
10905;DHT22;5505;51.450;9.254;2023-03-04T08:59:11;4.20;99.90
10905;DHT22;5505;51.450;9.254;2023-03-04T09:01:58;4.40;99.90
10905;DHT22;5505;51.450;9.254;2023-03-04T09:04:45;4.50;99.90
10905;DHT22;5505;51.450;9.254;2023-03-04T09:07:32;4.50;99.90
10905;DHT22;5505;51.450;9.254;2023-03-04T09:10:20;4.50;99.90
10905;DHT22;5505;51.450;9.254;2023-03-04T09:13:07;4.40;99.90
10905;DHT22;5505;51.450;9.254;2023-03-04T09:15:56;4.50;99.90
10905;DHT22;5505;51.450;9.254;2023-03-04T09:18:43;4.50;99.90
10905;DHT22;5505;51.450;9.254;2023-03-04T09:21:29;4.50;99.90
10905;DHT22;5505;51.450;9.254;2023-03-04T09:24:16;4.50;99.90
10905;DHT22;5505;51.450;9.254;2023-03-04T09:27:04;4.40;99.90
10905;DHT22;5505;51.450;9.254;2023-03-04T09:29:51;4.40;99.90
10905;DHT22;5505;51.450;9.254;2023-03-04T09:32:38;4.40;99.90
10905;DHT22;5505;51.450;9.254;2023-03-04T09:35:26;4.40;99.90
10905;DHT22;5505;51.450;9.254;2023-03-04T09:38:14;4.40;99.90
10905;DHT22;5505;51.450;9.254;2023-03-04T09:41:05;4.40;99.90
10905;DHT22;5505;51.450;9.254;2023-03-04T09:43:54;4.30;99.90
10905;DHT22;5505;51.450;9.254;2023-03-04T09:46:42;4.30;99.90
10905;DHT22;5505;51.450;9.254;2023-03-04T09:49:31;4.40;99.90
10905;DHT22;5505;51.450;9.254;2023-03-04T09:52:25;5.10;99.90
10905;DHT22;5505;51.450;9.254;2023-03-04T09:55:20;4.50;99.90
10905;DHT22;5505;51.450;9.254;2023-03-04T09:58:28;4.60;99.90
10905;DHT22;5505;51.450;9.254;2023-03-04T10:01:24;4.60;99.90
10905;DHT22;5505;51.450;9.254;2023-03-04T10:04:13;4.50;99.90
10905;DHT22;5505;51.450;9.254;2023-03-04T10:07:02;4.60;99.90
10905;DHT22;5505;51.450;9.254;2023-03-04T10:09:52;4.50;99.90
10905;DHT22;5505;51.450;9.254;2023-03-04T10:12:42;4.60;99.90
10905;DHT22;5505;51.450;9.254;2023-03-04T10:15:35;4.60;99.90
10905;DHT22;5505;51.450;9.254;2023-03-04T10:18:27;4.60;99.90
10905;DHT22;5505;51.450;9.254;2023-03-04T10:21:21;4.60;99.90
10905;DHT22;5505;51.450;9.254;2023-03-04T10:24:11;4.70;99.90
10905;DHT22;5505;51.450;9.254;2023-03-04T10:27:01;5.60;99.90
10905;DHT22;5505;51.450;9.254;2023-03-04T10:29:49;4.80;99.90
10905;DHT22;5505;51.450;9.254;2023-03-04T10:32:36;4.80;99.90
10905;DHT22;5505;51.450;9.254;2023-03-04T10:35:30;4.70;99.90
10905;DHT22;5505;51.450;9.254;2023-03-04T10:38:20;7.10;99.90
10905;DHT22;5505;51.450;9.254;2023-03-04T10:41:11;4.70;99.90
10905;DHT22;5505;51.450;9.254;2023-03-04T10:44:02;5.50;99.90
10905;DHT22;5505;51.450;9.254;2023-03-04T10:46:50;5.00;99.90
10905;DHT22;5505;51.450;9.254;2023-03-04T10:49:49;4.70;99.90
10905;DHT22;5505;51.450;9.254;2023-03-04T10:52:40;4.80;99.90
10905;DHT22;5505;51.450;9.254;2023-03-04T10:55:42;4.80;99.90
10905;DHT22;5505;51.450;9.254;2023-03-04T10:58:29;4.70;99.90
10905;DHT22;5505;51.450;9.254;2023-03-04T11:01:15;4.80;99.90
10905;DHT22;5505;51.450;9.254;2023-03-04T11:04:16;4.70;99.90
10905;DHT22;5505;51.450;9.254;2023-03-04T11:07:07;4.70;99.90
10905;DHT22;5505;51.450;9.254;2023-03-04T11:10:07;4.70;99.90
10905;DHT22;5505;51.450;9.254;2023-03-04T11:13:00;4.70;99.90
10905;DHT22;5505;51.450;9.254;2023-03-04T11:15:50;4.60;99.90
10905;DHT22;5505;51.450;9.254;2023-03-04T11:18:40;4.60;99.90
10905;DHT22;5505;51.450;9.254;2023-03-04T11:21:31;4.60;99.90
10905;DHT22;5505;51.450;9.254;2023-03-04T11:24:22;4.60;99.90
10905;DHT22;5505;51.450;9.254;2023-03-04T11:27:17;4.60;99.90
10905;DHT22;5505;51.450;9.254;2023-03-04T11:30:33;4.60;99.90
10905;DHT22;5505;51.450;9.254;2023-03-04T11:33:26;4.60;99.90
10905;DHT22;5505;51.450;9.254;2023-03-04T11:36:27;4.60;99.90
10905;DHT22;5505;51.450;9.254;2023-03-04T11:39:21;5.70;99.90
10905;DHT22;5505;51.450;9.254;2023-03-04T11:42:20;4.60;99.90
10905;DHT22;5505;51.450;9.254;2023-03-04T11:45:11;4.60;99.90
10905;DHT22;5505;51.450;9.254;2023-03-04T11:48:03;4.60;99.90
10905;DHT22;5505;51.450;9.254;2023-03-04T11:50:55;4.70;99.90
10905;DHT22;5505;51.450;9.254;2023-03-04T11:53:58;4.70;99.90
10905;DHT22;5505;51.450;9.254;2023-03-04T11:56:50;4.80;99.90
10905;DHT22;5505;51.450;9.254;2023-03-04T12:00:00;4.70;99.90
10905;DHT22;5505;51.450;9.254;2023-03-04T12:03:01;4.70;99.90
10905;DHT22;5505;51.450;9.254;2023-03-04T12:05:55;4.70;99.90
10905;DHT22;5505;51.450;9.254;2023-03-04T12:08:57;4.70;99.90
10905;DHT22;5505;51.450;9.254;2023-03-04T12:11:53;4.70;99.90
10905;DHT22;5505;51.450;9.254;2023-03-04T12:14:43;4.80;99.90
10905;DHT22;5505;51.450;9.254;2023-03-04T12:17:47;4.80;99.90
10905;DHT22;5505;51.450;9.254;2023-03-04T12:20:45;4.80;99.90
10905;DHT22;5505;51.450;9.254;2023-03-04T12:26:57;4.90;99.90
10905;DHT22;5505;51.450;9.254;2023-03-04T12:29:55;5.00;99.90
10905;DHT22;5505;51.450;9.254;2023-03-04T12:32:49;5.00;99.90
10905;DHT22;5505;51.450;9.254;2023-03-04T12:35:41;5.00;99.90
10905;DHT22;5505;51.450;9.254;2023-03-04T12:38:59;4.90;99.90
10905;DHT22;5505;51.450;9.254;2023-03-04T12:41:56;4.90;99.90
10905;DHT22;5505;51.450;9.254;2023-03-04T12:44:55;4.80;99.90
10905;DHT22;5505;51.450;9.254;2023-03-04T12:47:51;4.90;99.90
10905;DHT22;5505;51.450;9.254;2023-03-04T12:50:50;4.90;99.90
10905;DHT22;5505;51.450;9.254;2023-03-04T12:53:44;4.90;99.90
10905;DHT22;5505;51.450;9.254;2023-03-04T12:56:38;5.00;99.90
10905;DHT22;5505;51.450;9.254;2023-03-04T12:59:33;4.90;99.90
10905;DHT22;5505;51.450;9.254;2023-03-04T13:02:44;5.00;99.90
10905;DHT22;5505;51.450;9.254;2023-03-04T13:05:50;5.00;99.90
10905;DHT22;5505;51.450;9.254;2023-03-04T13:08:48;4.90;99.90
10905;DHT22;5505;51.450;9.254;2023-03-04T13:11:52;4.90;99.90
10905;DHT22;5505;51.450;9.254;2023-03-04T13:14:39;4.90;99.90
10905;DHT22;5505;51.450;9.254;2023-03-04T13:17:39;5.00;99.90
10905;DHT22;5505;51.450;9.254;2023-03-04T13:20:37;2.90;99.90
10905;DHT22;5505;51.450;9.254;2023-03-04T13:23:28;5.10;99.90
10905;DHT22;5505;51.450;9.254;2023-03-04T13:26:18;5.10;99.90
10905;DHT22;5505;51.450;9.254;2023-03-04T13:29:31;5.10;99.90
10905;DHT22;5505;51.450;9.254;2023-03-04T13:32:34;5.20;99.90
10905;DHT22;5505;51.450;9.254;2023-03-04T13:35:48;5.10;99.90
10905;DHT22;5505;51.450;9.254;2023-03-04T13:38:37;5.10;99.90
10905;DHT22;5505;51.450;9.254;2023-03-04T13:41:28;5.10;99.90
10905;DHT22;5505;51.450;9.254;2023-03-04T13:47:48;5.10;99.90
10905;DHT22;5505;51.450;9.254;2023-03-04T13:50:45;5.10;99.90
10905;DHT22;5505;51.450;9.254;2023-03-04T13:53:42;5.80;99.90
10905;DHT22;5505;51.450;9.254;2023-03-04T13:56:30;5.30;99.90
10905;DHT22;5505;51.450;9.254;2023-03-04T13:59:25;7.10;99.90
10905;DHT22;5505;51.450;9.254;2023-03-04T14:02:14;5.40;99.90
10905;DHT22;5505;51.450;9.254;2023-03-04T14:05:05;5.40;99.90
10905;DHT22;5505;51.450;9.254;2023-03-04T14:07:52;5.50;99.90
10905;DHT22;5505;51.450;9.254;2023-03-04T14:10:40;7.30;99.90
10905;DHT22;5505;51.450;9.254;2023-03-04T14:13:27;5.50;99.90
10905;DHT22;5505;51.450;9.254;2023-03-04T14:16:18;5.50;99.90
10905;DHT22;5505;51.450;9.254;2023-03-04T14:19:06;5.50;99.90
10905;DHT22;5505;51.450;9.254;2023-03-04T14:21:59;5.50;99.90
10905;DHT22;5505;51.450;9.254;2023-03-04T14:24:55;5.50;99.90
10905;DHT22;5505;51.450;9.254;2023-03-04T14:27:43;5.50;99.90
10905;DHT22;5505;51.450;9.254;2023-03-04T14:30:31;5.40;99.90
10905;DHT22;5505;51.450;9.254;2023-03-04T14:33:20;5.40;99.90
10905;DHT22;5505;51.450;9.254;2023-03-04T14:36:15;5.30;99.90
10905;DHT22;5505;51.450;9.254;2023-03-04T14:39:04;5.30;99.90
10905;DHT22;5505;51.450;9.254;2023-03-04T14:41:54;5.30;99.90
10905;DHT22;5505;51.450;9.254;2023-03-04T14:44:48;5.20;99.90
10905;DHT22;5505;51.450;9.254;2023-03-04T14:47:38;5.20;99.90
10905;DHT22;5505;51.450;9.254;2023-03-04T14:50:26;6.90;99.90
10905;DHT22;5505;51.450;9.254;2023-03-04T14:53:14;5.30;99.90
10905;DHT22;5505;51.450;9.254;2023-03-04T14:56:03;5.30;99.90
10905;DHT22;5505;51.450;9.254;2023-03-04T14:58:52;5.30;99.90
10905;DHT22;5505;51.450;9.254;2023-03-04T15:01:40;6.60;99.90
10905;DHT22;5505;51.450;9.254;2023-03-04T15:04:29;5.40;99.90
10905;DHT22;5505;51.450;9.254;2023-03-04T15:07:18;5.40;99.90
10905;DHT22;5505;51.450;9.254;2023-03-04T15:10:09;5.40;99.90
10905;DHT22;5505;51.450;9.254;2023-03-04T15:12:58;5.40;99.90
10905;DHT22;5505;51.450;9.254;2023-03-04T15:15:46;5.40;99.90
10905;DHT22;5505;51.450;9.254;2023-03-04T15:18:35;5.40;99.90
10905;DHT22;5505;51.450;9.254;2023-03-04T15:21:33;5.70;99.90
10905;DHT22;5505;51.450;9.254;2023-03-04T15:24:21;5.40;99.90
10905;DHT22;5505;51.450;9.254;2023-03-04T15:27:09;5.40;99.90
10905;DHT22;5505;51.450;9.254;2023-03-04T15:29:58;5.70;99.90
10905;DHT22;5505;51.450;9.254;2023-03-04T15:32:46;5.40;99.90
10905;DHT22;5505;51.450;9.254;2023-03-04T15:35:35;5.30;99.90
10905;DHT22;5505;51.450;9.254;2023-03-04T15:38:22;5.30;99.90
10905;DHT22;5505;51.450;9.254;2023-03-04T15:41:10;5.30;99.90
10905;DHT22;5505;51.450;9.254;2023-03-04T15:43:57;5.20;99.90
10905;DHT22;5505;51.450;9.254;2023-03-04T15:46:44;5.30;99.90
10905;DHT22;5505;51.450;9.254;2023-03-04T15:49:31;6.40;99.90
10905;DHT22;5505;51.450;9.254;2023-03-04T15:52:20;5.20;99.90
10905;DHT22;5505;51.450;9.254;2023-03-04T15:55:12;5.60;99.90
10905;DHT22;5505;51.450;9.254;2023-03-04T15:57:59;5.10;99.90
10905;DHT22;5505;51.450;9.254;2023-03-04T16:00:46;5.00;99.90
10905;DHT22;5505;51.450;9.254;2023-03-04T16:03:33;6.30;99.90
10905;DHT22;5505;51.450;9.254;2023-03-04T16:06:20;4.90;99.90
10905;DHT22;5505;51.450;9.254;2023-03-04T16:09:12;4.90;99.90
10905;DHT22;5505;51.450;9.254;2023-03-04T16:12:01;4.80;99.90
10905;DHT22;5505;51.450;9.254;2023-03-04T16:14:48;4.80;99.90
10905;DHT22;5505;51.450;9.254;2023-03-04T16:17:35;4.80;99.90
10905;DHT22;5505;51.450;9.254;2023-03-04T16:20:28;4.80;99.90
10905;DHT22;5505;51.450;9.254;2023-03-04T16:23:18;4.80;99.90
10905;DHT22;5505;51.450;9.254;2023-03-04T16:26:11;4.80;99.90
10905;DHT22;5505;51.450;9.254;2023-03-04T16:28:58;4.80;99.90
10905;DHT22;5505;51.450;9.254;2023-03-04T16:31:46;4.80;99.90
10905;DHT22;5505;51.450;9.254;2023-03-04T16:34:33;6.40;99.90
10905;DHT22;5505;51.450;9.254;2023-03-04T16:37:20;4.80;99.90
10905;DHT22;5505;51.450;9.254;2023-03-04T16:40:10;4.80;99.90
10905;DHT22;5505;51.450;9.254;2023-03-04T16:42:59;4.80;99.90
10905;DHT22;5505;51.450;9.254;2023-03-04T16:45:46;4.80;99.90
10905;DHT22;5505;51.450;9.254;2023-03-04T16:48:33;4.70;99.90
10905;DHT22;5505;51.450;9.254;2023-03-04T16:51:21;4.70;99.90
10905;DHT22;5505;51.450;9.254;2023-03-04T16:54:12;4.70;99.90
10905;DHT22;5505;51.450;9.254;2023-03-04T16:57:00;4.70;99.90
10905;DHT22;5505;51.450;9.254;2023-03-04T16:59:48;4.70;99.90
10905;DHT22;5505;51.450;9.254;2023-03-04T17:02:35;4.90;99.90
10905;DHT22;5505;51.450;9.254;2023-03-04T17:05:24;4.70;99.90
10905;DHT22;5505;51.450;9.254;2023-03-04T17:08:11;4.70;99.90
10905;DHT22;5505;51.450;9.254;2023-03-04T17:10:58;4.70;99.90
10905;DHT22;5505;51.450;9.254;2023-03-04T17:13:46;5.70;99.90
10905;DHT22;5505;51.450;9.254;2023-03-04T17:16:34;4.60;99.90
10905;DHT22;5505;51.450;9.254;2023-03-04T17:19:21;5.70;99.90
10905;DHT22;5505;51.450;9.254;2023-03-04T17:22:08;4.50;99.90
10905;DHT22;5505;51.450;9.254;2023-03-04T17:24:55;4.50;99.90
10905;DHT22;5505;51.450;9.254;2023-03-04T17:27:42;4.40;99.90
10905;DHT22;5505;51.450;9.254;2023-03-04T17:30:28;4.40;99.90
10905;DHT22;5505;51.450;9.254;2023-03-04T17:33:17;4.40;99.90
10905;DHT22;5505;51.450;9.254;2023-03-04T17:36:04;4.40;99.90
10905;DHT22;5505;51.450;9.254;2023-03-04T17:38:51;4.40;99.90
10905;DHT22;5505;51.450;9.254;2023-03-04T17:41:37;4.40;99.90
10905;DHT22;5505;51.450;9.254;2023-03-04T17:44:24;4.40;99.90
10905;DHT22;5505;51.450;9.254;2023-03-04T17:47:11;4.40;99.90
10905;DHT22;5505;51.450;9.254;2023-03-04T17:49:59;4.40;99.90
10905;DHT22;5505;51.450;9.254;2023-03-04T17:52:46;4.40;99.90
10905;DHT22;5505;51.450;9.254;2023-03-04T17:55:33;4.40;99.90
10905;DHT22;5505;51.450;9.254;2023-03-04T17:58:20;5.70;99.90
10905;DHT22;5505;51.450;9.254;2023-03-04T18:01:15;4.40;99.90
10905;DHT22;5505;51.450;9.254;2023-03-04T18:04:02;4.40;99.90
10905;DHT22;5505;51.450;9.254;2023-03-04T18:06:50;4.20;99.90
10905;DHT22;5505;51.450;9.254;2023-03-04T18:09:37;5.50;99.90
10905;DHT22;5505;51.450;9.254;2023-03-04T18:12:24;3.90;99.90
10905;DHT22;5505;51.450;9.254;2023-03-04T18:15:11;5.60;99.90
10905;DHT22;5505;51.450;9.254;2023-03-04T18:17:57;3.70;99.90
10905;DHT22;5505;51.450;9.254;2023-03-04T18:20:44;3.60;99.90
10905;DHT22;5505;51.450;9.254;2023-03-04T18:23:32;3.50;99.90
10905;DHT22;5505;51.450;9.254;2023-03-04T18:26:20;3.50;99.90
10905;DHT22;5505;51.450;9.254;2023-03-04T18:29:08;3.50;99.90
10905;DHT22;5505;51.450;9.254;2023-03-04T18:31:54;3.40;99.90
10905;DHT22;5505;51.450;9.254;2023-03-04T18:34:41;3.40;99.90